Flight Track Log - Related Links

Times and Time Zones

All times are in EDT time to prevent confusion due to time zone crossing. See the UAL4202 flight status page for this flight to view local times or setup timezone preferences in your user account.


Time Position Orientation Groundspeed Altitude Reporting Facility
EDT Latitude Longitude Course Direction KTS MPH feet Rate Location/Type
Thu 06:00:11 PM 40.6500 -74.2000 294° West 165 190 2,200  Level New York TRACON
Thu 06:01:11 PM 40.6333 -74.2667 252° West 260 299 3,400 1,750 Climbing New York TRACON
Thu 06:02:00 PM 40.7360 -74.5464 277° West  Level FlightAware Approximate
Thu 06:02:11 PM 40.6833 -74.3500 308° West 266 306 5,700  Level New York TRACON
Thu 06:03:00 PM 40.7481 -74.6791 277° West  Level FlightAware Approximate
Thu 06:03:17 PM 40.7167 -74.4333 298° West 271 312 8,000  Level New York TRACON
Thu 06:04:00 PM 40.7587 -74.8122 276° West  Level FlightAware Approximate
Thu 06:04:17 PM 40.7333 -74.5333 282° West 263 303 10,100  Level New York TRACON
Thu 06:05:00 PM 40.7754 -74.9430 294° West  Level FlightAware Approximate
Thu 06:05:10 PM 40.7403 -74.6272 276° West 274 315 11,200  Level New York Center
Thu 06:06:11 PM 40.7519 -74.7131 280° West 292 336 12,800 1,636 Climbing New York Center
Thu 06:07:11 PM 40.7669 -74.8261 280° West 300 345 14,500 1,339 Climbing New York Center
Thu 06:08:12 PM 40.7817 -74.9394 280° West 305 351 15,500 958 Climbing New York Center
Thu 06:09:10 PM 40.7942 -75.0553 278° West 317 365 16,400 958 Climbing New York Center
Thu 06:10:11 PM 40.7986 -75.1653 273° West 331 381 17,400 787 Climbing New York Center
Thu 06:11:12 PM 40.7814 -75.2875 259° West 331 381 18,000 867 Climbing New York Center
Thu 06:13:11 PM 40.7114 -75.5347 250° West 427 491 20,000 1,000 Climbing New York Center
Thu 06:14:12 PM 40.6669 -75.6519 243° Southwest 387 445 21,000 958 Climbing New York Center
Thu 06:15:10 PM 40.6244 -75.7694 245° Southwest 374 430 21,900 966 Climbing New York Center
Thu 06:16:10 PM 40.5778 -75.8889 243° Southwest 368 423 22,900 950 Climbing New York Center
Thu 06:17:10 PM 40.5333 -75.9975 242° Southwest 368 423 23,800 942 Climbing New York Center
Thu 06:18:11 PM 40.4861 -76.1194 243° Southwest 373 429 24,800 934 Climbing New York Center
Thu 06:19:12 PM 40.4414 -76.2361 243° Southwest 373 429 25,700 950 Climbing New York Center
Thu 06:20:11 PM 40.3939 -76.3603 243° Southwest 378 435 26,700 950 Climbing New York Center
Thu 06:21:12 PM 40.3506 -76.4794 245° Southwest 378 435 27,600 958 Climbing New York Center
Thu 06:22:10 PM 40.3011 -76.5953 241° Southwest 373 429 28,600 1,008 Climbing New York Center
Thu 06:23:11 PM 40.2578 -76.7111 244° Southwest 366 421 29,600 942 Climbing New York Center
Thu 06:24:11 PM 40.2106 -76.8242 241° Southwest 361 415 30,500 3,174 Climbing New York Center
Thu 06:25:12 PM 40.1597 -76.9556 243° Southwest 366 421 36,000 1,109 Climbing New York Center
Thu 06:26:10 PM 40.1147 -77.0600 241° Southwest 351 404 32,700 -1,109 Descending New York Center
Thu 06:27:11 PM 40.0694 -77.1672 241° Southwest 345 397 33,800 1,033 Climbing New York Center
Thu 06:28:12 PM 40.0278 -77.2775 244° Southwest 340 391 34,800 1,008 Climbing New York Center
Thu 06:29:10 PM 39.9822 -77.3842 241° Southwest 340 391 35,800 350 Climbing New York Center
Thu 06:31:38 PM 39.9650 -77.6631 265° West 327 376 36,000 58 Climbing Cleveland Center
Thu 06:32:38 PM 39.9706 -77.7956 273° West 351 404 36,000  Level Cleveland Center
Thu 06:33:38 PM 39.9739 -77.9361 272° West 373 429 36,000  Level Cleveland Center
Thu 06:34:38 PM 39.9792 -78.0797 273° West 385 443 36,000  Level Cleveland Center
Thu 06:35:38 PM 39.9822 -78.2286 272° West 398 458 36,000  Level Cleveland Center
Thu 06:36:38 PM 39.9833 -78.3856 271° West 420 483 36,000  Level Cleveland Center
Thu 06:37:38 PM 39.9864 -78.5400 272° West 431 496 36,000  Level Cleveland Center
Thu 06:38:38 PM 39.9889 -78.6972 271° West 431 496 36,000  Level Cleveland Center
Thu 06:39:38 PM 39.9914 -78.8489 271° West 431 496 36,000  Level Cleveland Center
Thu 06:40:38 PM 40.0000 -79.0167 274° West 431 496 36,000  Level Cleveland Center
Thu 06:41:38 PM 40.0022 -79.1711 271° West 431 496 36,000  Level Cleveland Center
Thu 06:42:38 PM 40.0039 -79.3283 271° West 431 496 36,000  Level Cleveland Center
Thu 06:43:38 PM 40.0078 -79.4853 272° West 431 496 36,000  Level Cleveland Center
Thu 06:44:38 PM 40.0092 -79.6397 271° West 436 502 36,000  Level Cleveland Center
Thu 06:45:38 PM 40.0103 -79.7917 271° West 436 502 36,000  Level Cleveland Center
Thu 06:46:38 PM 40.0133 -79.9433 272° West 431 496 36,000  Level Cleveland Center
Thu 06:47:38 PM 40.0139 -80.0953 270° West 426 490 36,000  Level Cleveland Center
Thu 06:48:38 PM 40.0144 -80.2442 270° West 421 484 36,000  Level Cleveland Center
Thu 06:49:38 PM 40.0169 -80.3961 271° West 421 484 36,000  Level Cleveland Center
Thu 06:50:38 PM 40.0192 -80.5289 271° West 421 484 36,000  Level Cleveland Center
Thu 06:51:38 PM 40.0192 -80.6806 270° West 421 484 36,000  Level Cleveland Center
Thu 06:53:17 PM 40.0156 -80.9275 269° West 417 480 36,000  Level Indianapolis Center
Thu 06:54:18 PM 40.0136 -81.0797 269° West 415 478 36,000  Level Indianapolis Center
Thu 06:55:20 PM 40.0111 -81.2292 269° West 411 473 36,000  Level Indianapolis Center
Thu 06:56:22 PM 40.0086 -81.3794 269° West 411 473 36,000  Level Indianapolis Center
Thu 06:57:24 PM 40.0050 -81.5542 269° West 411 473 36,000  Level Indianapolis Center
Thu 06:58:25 PM 40.0017 -81.7017 268° West 405 466 36,000  Level Indianapolis Center
Thu 06:59:27 PM 39.9994 -81.8486 269° West 410 472 36,000  Level Indianapolis Center
Thu 07:00:28 PM 39.9958 -81.9933 268° West 398 458 36,000 -49 Level Indianapolis Center
Thu 07:01:30 PM 39.9925 -82.1372 268° West 394 453 35,900  Descending Indianapolis Center
Thu 07:02:32 PM 39.9892 -82.2819 268° West 397 457 36,000 49 Climbing Indianapolis Center
Thu 07:03:33 PM 39.9850 -82.4222 268° West 387 445 36,000 -49 Level Indianapolis Center
Thu 07:04:35 PM 39.9814 -82.5633 268° West 388 447 35,900 -49 Descending Indianapolis Center
Thu 07:05:36 PM 39.9767 -82.7075 268° West 394 453 35,900 49 Level Indianapolis Center
Thu 07:06:38 PM 39.9731 -82.8642 268° West 386 444 36,000 49 Climbing Indianapolis Center
Thu 07:07:39 PM 39.9681 -83.0000 267° West 379 436 36,000  Level Indianapolis Center
Thu 07:08:41 PM 39.9647 -83.1333 268° West 372 428 36,000  Level Indianapolis Center
Thu 07:09:43 PM 39.9622 -83.2678 269° West 371 427 36,000  Level Indianapolis Center
Thu 07:10:44 PM 39.9564 -83.4044 267° West 375 432 36,000  Level Indianapolis Center
Thu 07:11:46 PM 39.9514 -83.5436 267° West 383 441 36,000  Level Indianapolis Center
Thu 07:12:47 PM 39.9464 -83.6908 268° West 389 448 36,000  Level Indianapolis Center
Thu 07:13:48 PM 39.9403 -83.8450 267° West 371 427 36,000  Level Indianapolis Center
Thu 07:14:50 PM 39.9350 -83.9817 267° West 368 423 36,000 -48 Level Indianapolis Center
Thu 07:15:52 PM 39.9297 -84.1164 267° West 370 426 35,900 -49 Descending Indianapolis Center
Thu 07:16:53 PM 39.9244 -84.2536 267° West 375 432 35,900 49 Level Indianapolis Center
Thu 07:17:55 PM 39.9183 -84.3886 267° West 371 427 36,000  Climbing Indianapolis Center
Thu 07:18:56 PM 39.9125 -84.5225 267° West 368 423 35,900  Descending Indianapolis Center
Thu 07:19:58 PM 39.9050 -84.6569 266° West 371 427 36,000 49 Climbing Indianapolis Center
Thu 07:20:59 PM 39.9000 -84.7900 267° West 367 422 36,000  Level Indianapolis Center
Thu 07:22:01 PM 39.8781 -84.9186 258° West 360 414 36,000  Level Indianapolis Center
Thu 07:23:02 PM 39.8519 -85.0458 255° West 360 414 36,000  Level Indianapolis Center
Thu 07:24:04 PM 39.8256 -85.1725 255° West 361 415 36,000  Level Indianapolis Center
Thu 07:25:06 PM 39.7953 -85.3214 255° West 364 419 36,000  Level Indianapolis Center
Thu 07:26:06 PM 39.7692 -85.4519 255° West 370 426 36,000  Level Indianapolis Center
Thu 07:27:08 PM 39.7481 -85.5800 258° West 361 415 36,000  Level Indianapolis Center
Thu 07:28:09 PM 39.7292 -85.7086 259° West 360 414 36,000  Level Indianapolis Center
Thu 07:29:11 PM 39.7142 -85.8397 262° West 363 418 36,000  Level Indianapolis Center
Thu 07:30:12 PM 39.6969 -85.9592 259° West 361 415 36,000  Level Indianapolis Center
Thu 07:31:13 PM 39.6789 -86.0886 260° West 363 418 36,000  Level Indianapolis Center
Thu 07:32:15 PM 39.6594 -86.2192 259° West 367 422 36,000  Level Indianapolis Center
Thu 07:33:16 PM 39.6428 -86.3517 261° West 371 427 36,000  Level Indianapolis Center
Thu 07:34:17 PM 39.6197 -86.5086 259° West 368 423 36,000  Level Indianapolis Center
Thu 07:35:19 PM 39.6025 -86.6344 260° West 357 411 36,000  Level Indianapolis Center
Thu 07:36:20 PM 39.5839 -86.7594 259° West 353 406 36,000  Level Indianapolis Center
Thu 07:37:21 PM 39.5661 -86.8892 260° West 363 418 36,000 -98 Level Indianapolis Center
Thu 07:38:23 PM 39.5467 -87.0161 259° West 360 414 35,800 -878 Descending Indianapolis Center
Thu 07:39:24 PM 39.5278 -87.1444 259° West 361 415 34,200 -1,623 Descending Indianapolis Center
Thu 07:40:25 PM 39.5106 -87.2661 260° West 346 398 32,500 -1,659 Descending Indianapolis Center
Thu 07:41:27 PM 39.4903 -87.3931 258° West 357 411 30,800 -1,610 Descending Indianapolis Center
Thu 07:42:28 PM 39.4708 -87.5303 260° West 380 437 29,200 -1,328 Descending Indianapolis Center
Thu 07:43:29 PM 39.4492 -87.6639 258° West 381 438 28,100 -585 Descending Indianapolis Center
Thu 07:44:31 PM 39.4297 -87.7958 259° West 375 432 28,000 -52 Descending Indianapolis Center
Thu 07:45:24 PM 39.4100 -87.9314 259° West 376 433 28,000  Level Kansas City Center
Thu 07:46:25 PM 39.3878 -88.0656 258° West 377 434 28,000  Level Kansas City Center
Thu 07:47:28 PM 39.3517 -88.1964 250° West 381 438 28,000  Level Kansas City Center
Thu 07:48:29 PM 39.3189 -88.3225 251° West 377 434 28,000  Level Kansas City Center
Thu 07:49:32 PM 39.2867 -88.4461 251° West 370 426 28,000 -629 Level Kansas City Center
Thu 07:50:33 PM 39.2544 -88.5708 252° West 367 422 26,700 -1,736 Descending Kansas City Center
Thu 07:51:33 PM 39.2203 -88.6953 251° West 368 423 24,500 -2,129 Descending Kansas City Center
Thu 07:52:37 PM 39.1828 -88.8367 251° West 357 411 22,300 -1,667 Descending Kansas City Center
Thu 07:53:39 PM 39.1517 -88.9514 251° West 349 402 21,000 -1,463 Descending Kansas City Center
Thu 07:54:40 PM 39.1189 -89.0656 250° West 329 379 19,300 -1,770 Descending Kansas City Center
Thu 07:55:41 PM 39.0903 -89.1694 250° West 310 357 17,400 -1,841 Descending Kansas City Center
Thu 07:56:08 PM 39.0819 -89.1697 181° South 311 358 16,600 -1,660 Descending FAA TRACON SMA TRACON (SMA)
Thu 07:56:28 PM 39.0739 -89.2022 252° West 311 358 16,100 -1,500 Descending FAA TRACON SMA TRACON (SMA)
Thu 07:56:48 PM 39.0661 -89.2347 253° West 308 354 15,600 -1,692 Descending FAA TRACON SMA TRACON (SMA)
Thu 07:57:07 PM 39.0561 -89.2739 252° West 301 346 15,000 -1,692 Descending FAA TRACON SMA TRACON (SMA)
Thu 07:57:27 PM 39.0494 -89.3061 255° West 302 348 14,500 -1,500 Descending FAA TRACON SMA TRACON (SMA)
Thu 07:57:47 PM 39.0417 -89.3375 252° West 301 346 14,000 -1,756 Descending FAA TRACON SMA TRACON (SMA)
Thu 07:58:08 PM 39.0319 -89.3750 252° West 289 333 13,300 -1,650 Descending FAA TRACON SMA TRACON (SMA)
Thu 07:58:27 PM 39.0267 -89.4056 257° West 286 329 12,900 -1,385 Descending FAA TRACON SMA TRACON (SMA)
Thu 07:58:47 PM 39.0178 -89.4350 249° West 285 328 12,400 -1,610 Descending FAA TRACON SMA TRACON (SMA)
Thu 07:59:08 PM 39.0097 -89.4731 255° West 288 331 11,800 -1,610 Descending FAA TRACON SMA TRACON (SMA)
Thu 07:59:28 PM 39.0028 -89.5036 254° West 289 333 11,300 -1,231 Descending FAA TRACON SMA TRACON (SMA)
Thu 07:59:47 PM 38.9947 -89.5331 251° West 285 328 11,000 -462 Descending FAA TRACON SMA TRACON (SMA)
Thu 08:00:07 PM 38.9858 -89.5619 248° West 283 326 11,000  Level FAA TRACON SMA TRACON (SMA)
Thu 08:00:28 PM 38.9675 -89.5914 231° Southwest 278 320 11,000  Level FAA TRACON SMA TRACON (SMA)
Thu 08:00:47 PM 38.9494 -89.6114 221° Southwest 277 319 11,000 -154 Level FAA TRACON SMA TRACON (SMA)
Thu 08:01:07 PM 38.9319 -89.6300 220° Southwest 273 314 10,900 -585 Descending FAA TRACON SMA TRACON (SMA)
Thu 08:01:28 PM 38.9114 -89.6519 220° Southwest 256 295 10,600 -900 Descending FAA TRACON SMA TRACON (SMA)
Thu 08:01:47 PM 38.8967 -89.6692 222° Southwest 241 277 10,300 -1,231 Descending FAA TRACON SMA TRACON (SMA)
Thu 08:02:07 PM 38.8811 -89.6861 220° Southwest 236 272 9,800 -1,610 Descending FAA TRACON SMA TRACON (SMA)
Thu 08:02:28 PM 38.8614 -89.7067 219° Southwest 236 272 9,200 -1,463 Descending FAA TRACON SMA TRACON (SMA)
Thu 08:02:48 PM 38.8450 -89.7228 217° Southwest 238 274 8,800 -1,385 Descending FAA TRACON SMA TRACON (SMA)
Thu 08:03:07 PM 38.8297 -89.7383 218° Southwest 234 269 8,300 -1,650 Descending FAA TRACON SMA TRACON (SMA)
Thu 08:03:28 PM 38.8119 -89.7572 220° Southwest 223 257 7,700 -1,317 Descending FAA TRACON SMA TRACON (SMA)
Thu 08:03:48 PM 38.7978 -89.7722 220° Southwest 217 250 7,400 -1,050 Descending FAA TRACON SMA TRACON (SMA)
Thu 08:04:08 PM 38.7800 -89.7903 218° Southwest 209 241 7,000 -600 Descending FAA TRACON SMA TRACON (SMA)
Thu 08:04:28 PM 38.7667 -89.8039 219° Southwest 205 236 7,000 -154 Level FAA TRACON SMA TRACON (SMA)
Thu 08:04:47 PM 38.7536 -89.8178 220° Southwest 198 228 6,900 -615 Descending FAA TRACON SMA TRACON (SMA)
Thu 08:05:07 PM 38.7411 -89.8311 220° Southwest 196 226 6,600 -1,024 Descending FAA TRACON SMA TRACON (SMA)
Thu 08:05:28 PM 38.7258 -89.8475 220° Southwest 189 217 6,200 -1,200 Descending FAA TRACON SMA TRACON (SMA)
Thu 08:05:47 PM 38.7136 -89.8600 219° Southwest 185 213 5,800 -1,077 Descending FAA TRACON SMA TRACON (SMA)
Thu 08:06:07 PM 38.7014 -89.8725 219° Southwest 181 208 5,500 -878 Descending FAA TRACON SMA TRACON (SMA)
Thu 08:06:28 PM 38.6856 -89.8881 217° Southwest 186 214 5,200 -732 Descending FAA TRACON SMA TRACON (SMA)
Thu 08:06:48 PM 38.6731 -89.9011 219° Southwest 187 215 5,000 -300 Descending FAA TRACON SMA TRACON (SMA)
Thu 08:07:08 PM 38.6614 -89.9133 219° Southwest 182 209 5,000  Level FAA TRACON SMA TRACON (SMA)
Thu 08:07:28 PM 38.6456 -89.9283 217° Southwest 182 209 5,000  Level FAA TRACON SMA TRACON (SMA)
Thu 08:07:47 PM 38.6325 -89.9411 217° Southwest 186 214 5,000  Level FAA TRACON SMA TRACON (SMA)
Thu 08:08:08 PM 38.6194 -89.9547 219° Southwest 192 221 5,000  Level FAA TRACON SMA TRACON (SMA)
Thu 08:08:47 PM 38.6036 -89.9939 243° Southwest 203 234 5,000 -102 Level FAA TRACON SMA TRACON (SMA)
Thu 08:09:07 PM 38.6039 -90.0131 271° West 183 211 4,900  Descending FAA TRACON SMA TRACON (SMA)
Thu 08:09:28 PM 38.6092 -90.0347 287° West 172 198 5,000  Climbing FAA TRACON SMA TRACON (SMA)
Thu 08:09:47 PM 38.6178 -90.0514 303° West 178 205 4,900 -462 Descending FAA TRACON SMA TRACON (SMA)
Thu 08:10:07 PM 38.6281 -90.0667 311° West 181 208 4,700 -878 Descending FAA TRACON SMA TRACON (SMA)
Thu 08:10:28 PM 38.6375 -90.0867 301° West 176 203 4,300 -1,024 Descending FAA TRACON SMA TRACON (SMA)
Thu 08:10:48 PM 38.6447 -90.1031 299° West 171 197 4,000 -900 Descending FAA TRACON SMA TRACON (SMA)
Thu 08:11:08 PM 38.6519 -90.1181 302° West 165 190 3,700 -900 Descending FAA TRACON SMA TRACON (SMA)
Thu 08:11:28 PM 38.6608 -90.1353 303° West 152 175 3,400 -923 Descending FAA TRACON SMA TRACON (SMA)
Thu 08:11:47 PM 38.6672 -90.1486 302° West 144 166 3,100 -769 Descending FAA TRACON SMA TRACON (SMA)
Thu 08:12:07 PM 38.6742 -90.1625 303° West 147 169 2,900 -732 Descending FAA TRACON SMA TRACON (SMA)
Thu 08:12:28 PM 38.6825 -90.1792 303° West 148 170 2,600 -878 Descending FAA TRACON SMA TRACON (SMA)
Thu 08:12:48 PM 38.6892 -90.1928 302° West 145 167 2,300 -769 Descending FAA TRACON SMA TRACON (SMA)
Thu 08:13:07 PM 38.6953 -90.2056 302° West 140 161 2,100 -769 Descending FAA TRACON SMA TRACON (SMA)
Thu 08:13:27 PM 38.7019 -90.2194 302° West 123 142 1,800 -732 Descending FAA TRACON SMA TRACON (SMA)
Thu 08:13:48 PM 38.7075 -90.2306 303° West 119 137 1,600 -600 Descending FAA TRACON SMA TRACON (SMA)
Thu 08:14:07 PM 38.7131 -90.2417 303° West 120 138 1,400 -769 Descending FAA TRACON SMA TRACON (SMA)
Thu 08:14:27 PM 38.7200 -90.2561 302° West 122 140 1,100 -732 Descending FAA TRACON SMA TRACON (SMA)
Thu 08:14:48 PM 38.7256 -90.2678 301° West 124 143 900 -600 Descending FAA TRACON SMA TRACON (SMA)
Thu 08:15:07 PM 38.7311 -90.2789 303° West 121 139 700 -632 Descending FAA TRACON SMA TRACON (SMA)

Login

Don't have an account? Register now (free) for customized features, flight alerts, and more!